An Run Da 2 — BHNX — position and weather

sailwx.info

Track history (hours):
 
Tides and Currents Weather Stations Pressure Air Temp Water Temp Dewpoint Dewpoint Depression Visibility Wind Speed Wind Dir Waves Ship Positions

An Run Da 2

Last reported at 2016-Jul-24 06:32 UTC. Time now 2016-Jul-25 10:05 UTC.
Position N 32°05' E 119°55'.

Length 147 m; draft 8.4 m.

Type: Cargo ship. MMSI: 413360230.

Date/timePositionNaut miles runAvg speedWind from/ knotsBaromVisibWave heightAir tempDewpointWater temp
2016-Jul-24 06:32N 32°05' E 119°55'6 5.3
2016-Jul-24 05:29N 32°00' E 119°58'5 4.3
2016-Jul-24 04:15N 31°58' E 120°04'10 5.6
2016-Jul-24 02:32N 31°56' E 120°15'5 5.4
2016-Jul-24 01:33N 31°59' E 120°20'7 6.5
2016-Jul-24 00:25N 32°02' E 120°28'6 7.1
2016-Jul-23 23:33N 32°00' E 120°35'15 7.2
2016-Jul-23 21:31N 31°57' E 120°52'10 9.6
2016-Jul-23 20:32N 31°48' E 120°56'1010.6
2016-Jul-23 19:33N 31°44' E 121°07'1111.2
2016-Jul-23 18:33N 31°37' E 121°17'1110.9
2016-Jul-23 17:33N 31°29' E 121°26'1211.7
2016-Jul-23 16:32N 31°22' E 121°37'1010.1
2016-Jul-23 15:32N 31°18' E 121°48'1010.2
2016-Jul-23 14:33N 31°15' E 121°59'9 9.2
2016-Jul-23 13:33N 31°12' E 122°09'9 8.8
2016-Jul-23 12:34N 31°07' E 122°18'1110.6
2016-Jul-23 11:33N 31°06' E 122°30'5 3.3
2016-Jul-23 10:05N 31°03' E 122°35'21 0.6
2016-Jul-22 00:31N 30°42' E 122°37'4611.4
2016-Jul-21 20:31N 31°09' E 121°53'1313.3
2016-Jul-21 19:33N 31°18' E 121°43'1111.2
2016-Jul-21 18:33N 31°24' E 121°32'9 9.4
2016-Jul-21 17:33N 31°31' E 121°24'10 9.7
2016-Jul-21 16:33N 31°37' E 121°16'1211.9
2016-Jul-21 15:33N 31°45' E 121°05'1212.0
2016-Jul-21 14:31N 31°52' E 120°53'9 6.4
2016-Jul-21 13:09N 31°60' E 120°47'0 0.0
2016-Jul-20 10:21N 31°60' E 120°47'0 0.6
2016-Jul-20 09:34N 31°60' E 120°48'7 5.6
2016-Jul-20 08:16N 31°54' E 120°53'6 7.6
2016-Jul-20 07:32N 31°49' E 120°55'8 7.8
2016-Jul-20 06:34N 31°46' E 121°04'9 9.1
2016-Jul-20 05:33N 31°40' E 121°12'10 9.6
2016-Jul-20 04:33N 31°33' E 121°20'10 9.9
2016-Jul-20 03:33N 31°27' E 121°29'1110.4
2016-Jul-20 02:32N 31°21' E 121°39'61 2.2
2016-Jul-18 22:27N 30°44' E 122°36'8 8.6
2016-Jul-18 21:31N 30°36' E 122°38'  
2016-Jul-15 00:07N 26°07' E 119°33'610.1
2016-Jul-14 23:33N 26°02' E 119°30'3 0.5
2016-Jul-14 17:16N 25°59' E 119°28'0 0.0
2016-Jul-14 12:12N 25°59' E 119°28'  
Track history (hours):
 
Tides and Currents Weather Stations Pressure Air Temp Water Temp Dewpoint Dewpoint Depression Visibility Wind Speed Wind Dir Waves Ship Positions

An Run Da 2

Last reported at 2016-Jul-24 06:32 UTC. Time now 2016-Jul-25 10:05 UTC.
Position N 32°05' E 119°55'.

Length 147 m; draft 8.4 m.

Type: Cargo ship. MMSI: 413360230.

Date/timePositionNaut miles runAvg speedWind from/ knotsBaromVisibWave heightAir tempDewpointWater temp
2016-Jul-24 06:32N 32°05' E 119°55'6 5.3
2016-Jul-24 05:29N 32°00' E 119°58'5 4.3
2016-Jul-24 04:15N 31°58' E 120°04'10 5.6
2016-Jul-24 02:32N 31°56' E 120°15'5 5.4
2016-Jul-24 01:33N 31°59' E 120°20'7 6.5
2016-Jul-24 00:25N 32°02' E 120°28'6 7.1
2016-Jul-23 23:33N 32°00' E 120°35'15 7.2
2016-Jul-23 21:31N 31°57' E 120°52'10 9.6
2016-Jul-23 20:32N 31°48' E 120°56'1010.6
2016-Jul-23 19:33N 31°44' E 121°07'1111.2
2016-Jul-23 18:33N 31°37' E 121°17'1110.9
2016-Jul-23 17:33N 31°29' E 121°26'1211.7
2016-Jul-23 16:32N 31°22' E 121°37'1010.1
2016-Jul-23 15:32N 31°18' E 121°48'1010.2
2016-Jul-23 14:33N 31°15' E 121°59'9 9.2
2016-Jul-23 13:33N 31°12' E 122°09'9 8.8
2016-Jul-23 12:34N 31°07' E 122°18'1110.6
2016-Jul-23 11:33N 31°06' E 122°30'5 3.3
2016-Jul-23 10:05N 31°03' E 122°35'21 0.6
2016-Jul-22 00:31N 30°42' E 122°37'4611.4
2016-Jul-21 20:31N 31°09' E 121°53'1313.3
2016-Jul-21 19:33N 31°18' E 121°43'1111.2
2016-Jul-21 18:33N 31°24' E 121°32'9 9.4
2016-Jul-21 17:33N 31°31' E 121°24'10 9.7
2016-Jul-21 16:33N 31°37' E 121°16'1211.9
2016-Jul-21 15:33N 31°45' E 121°05'1212.0
2016-Jul-21 14:31N 31°52' E 120°53'9 6.4
2016-Jul-21 13:09N 31°60' E 120°47'0 0.0
2016-Jul-20 10:21N 31°60' E 120°47'0 0.6
2016-Jul-20 09:34N 31°60' E 120°48'7 5.6
2016-Jul-20 08:16N 31°54' E 120°53'6 7.6
2016-Jul-20 07:32N 31°49' E 120°55'8 7.8
2016-Jul-20 06:34N 31°46' E 121°04'9 9.1
2016-Jul-20 05:33N 31°40' E 121°12'10 9.6
2016-Jul-20 04:33N 31°33' E 121°20'10 9.9
2016-Jul-20 03:33N 31°27' E 121°29'1110.4
2016-Jul-20 02:32N 31°21' E 121°39'61 2.2
2016-Jul-18 22:27N 30°44' E 122°36'8 8.6
2016-Jul-18 21:31N 30°36' E 122°38'  
2016-Jul-15 00:07N 26°07' E 119°33'610.1
2016-Jul-14 23:33N 26°02' E 119°30'3 0.5
2016-Jul-14 17:16N 25°59' E 119°28'0 0.0
2016-Jul-14 12:12N 25°59' E 119°28'  

Dump ship's entire track history